Americaborg — PHKT — position and weather

sailwx.info

Track history (hours):
 
Tides and Currents Weather Stations Pressure Air Temp Water Temp Dewpoint Dewpoint Depression Visibility Wind Speed Wind Dir Waves Ship Positions

Americaborg

Last reported at 2017-Oct-05 23:17 UTC. Time now 2017-Oct-19 22:09 UTC.
Position N 60°25' E 019°02'.
Warning: this ship's position is 13 days out of date.

Length 143 m; draft 8.2 m.

Type: Cargo ship. MMSI: 244693000.

Date/timePositionNaut miles runAvg speedWind from/ knotsBaromVisibWave heightAir tempDewpointWater temp
2017-Oct-05 23:17N 60°25' E 019°02'413.2
2017-Oct-05 23:00N 60°21' E 019°01'612.9
2017-Oct-05 22:30N 60°14' E 019°03'612.9
2017-Oct-05 22:00N 60°09' E 019°09'611.7
2017-Oct-05 21:30N 60°04' E 019°16'611.9
2017-Oct-05 21:00N 59°60' E 019°24'711.9
2017-Oct-05 20:25N 59°54' E 019°33'25211.4
2017-Oct-04 22:12N 56°00' E 016°36'312.8
2017-Oct-04 22:00N 55°59' E 016°32'612.7
2017-Oct-04 21:31N 55°56' E 016°22'612.7
2017-Oct-04 21:01N 55°52' E 016°13'612.8
2017-Oct-04 20:31N 55°49' E 016°03'612.9
2017-Oct-04 20:01N 55°46' E 015°53'612.5
2017-Oct-04 19:31N 55°43' E 015°43'612.3
2017-Oct-04 19:00N 55°40' E 015°33'612.5
2017-Oct-04 18:31N 55°37' E 015°24'612.6
2017-Oct-04 18:01N 55°34' E 015°14'712.6
2017-Oct-04 17:29N 55°31' E 015°03'612.5
2017-Oct-04 17:00N 55°28' E 014°54'712.3
2017-Oct-04 16:28N 55°25' E 014°44'612.3
2017-Oct-04 16:00N 55°21' E 014°37'612.5
2017-Oct-04 15:30N 55°17' E 014°29'713.1
2017-Oct-04 15:00N 55°11' E 014°22'612.4
2017-Oct-04 14:30N 55°06' E 014°16'612.4
2017-Oct-04 14:00N 55°02' E 014°08'1012.1
2017-Oct-04 13:11N 54°58' E 013°52'3212.2
2017-Oct-04 10:32N 54°48' E 012°59'012.7
2017-Oct-04 10:31N 54°48' E 012°58'1612.5
2017-Oct-04 09:15N 54°41' E 012°34'1512.6
2017-Oct-04 08:05N 54°31' E 012°16'2011.5
2017-Oct-04 06:19N 54°26' E 011°42'514.1
2017-Oct-04 05:59N 54°28' E 011°35'715.0
2017-Oct-04 05:30N 54°31' E 011°24'815.8
2017-Oct-04 05:01N 54°35' E 011°12'815.1
2017-Oct-04 04:30N 54°39' E 011°01'713.2
2017-Oct-04 04:00N 54°43' E 010°52'714.1
2017-Oct-04 03:31N 54°50' E 010°52'714.4
2017-Oct-04 03:00N 54°57' E 010°57'713.6
2017-Oct-04 02:30N 55°03' E 011°01'714.6
2017-Oct-04 02:00N 55°10' E 011°04'11711.4
2017-Oct-03 15:49N 57°05' E 011°39'412.9
2017-Oct-03 15:28N 57°10' E 011°36'612.7
2017-Oct-03 15:00N 57°15' E 011°33'1212.4
2017-Oct-03 14:00N 57°27' E 011°25'612.6
2017-Oct-03 13:30N 57°30' E 011°15'713.1
2017-Oct-03 13:00N 57°32' E 011°04'713.9
2017-Oct-03 12:30N 57°35' E 010°52'713.4
2017-Oct-03 12:00N 57°39' E 010°41'4 7.1
2017-Oct-03 11:26N 57°40' E 010°35'0 0.0
2017-Oct-03 10:56N 57°41' E 010°35'0 0.0
2017-Oct-03 10:30N 57°40' E 010°35'0 0.0
2017-Oct-03 09:48N 57°41' E 010°35'0 0.0
2017-Oct-03 09:26N 57°41' E 010°35'0 0.0
2017-Oct-03 08:02N 57°41' E 010°35'0 0.1
2017-Oct-03 07:00N 57°40' E 010°35'2 5.0
2017-Oct-03 06:30N 57°41' E 010°39'510.2
2017-Oct-03 05:58N 57°46' E 010°45'511.4
2017-Oct-03 05:30N 57°47' E 010°36'715.1
2017-Oct-03 05:01N 57°47' E 010°22'18512.8
2017-Oct-02 14:35N 55°31' E 006°33'3612.6
2017-Oct-02 11:46N 55°01' E 006°01'312.8
2017-Oct-02 11:30N 54°58' E 005°58'612.8
2017-Oct-02 11:00N 54°52' E 005°53'612.9
2017-Oct-02 10:30N 54°47' E 005°47'8113.0
2017-Oct-02 04:16N 53°33' E 004°48'313.0
2017-Oct-02 04:00N 53°30' E 004°46'713.5
2017-Oct-02 03:30N 53°24' E 004°41'1413.9
2017-Oct-02 02:31N 53°11' E 004°32'514.1
2017-Oct-02 02:09N 53°07' E 004°28'213.9
2017-Oct-02 02:00N 53°05' E 004°26'713.9
2017-Oct-02 01:30N 52°59' E 004°20'714.0
2017-Oct-02 01:00N 52°53' E 004°15'714.1
2017-Oct-02 00:30N 52°47' E 004°09'714.0
2017-Oct-02 00:00N 52°42' E 004°01'714.2
2017-Oct-01 23:29N 52°37' E 003°52'8913.3
2017-Oct-01 16:47N 51°30' E 002°15'412.7
2017-Oct-01 16:28N 51°27' E 002°11'612.6
2017-Oct-01 16:00N 51°22' E 002°07'612.9
2017-Oct-01 15:31N 51°16' E 002°05'612.4
2017-Oct-01 15:00N 51°12' E 001°57'613.0
2017-Oct-01 14:31N 51°08' E 001°48'713.3
2017-Oct-01 14:01N 51°03' E 001°41'713.6
2017-Oct-01 13:30N 50°58' E 001°34'713.9
2017-Oct-01 13:00N 50°53' E 001°27'1214.1
2017-Oct-01 12:09N 50°42' E 001°20'4512.4
2017-Oct-01 08:33N 50°23' E 000°16'112.5
2017-Oct-01 08:30N 50°23' E 000°15'612.6
2017-Oct-01 08:00N 50°21' E 000°06'612.7
2017-Oct-01 07:31N 50°20' W 000°04'612.9
2017-Oct-01 07:01N 50°18' W 000°14'3213.8
2017-Oct-01 04:40N 50°09' W 001°02'214.4
2017-Oct-01 04:30N 50°08' W 001°06'714.5
2017-Oct-01 04:00N 50°06' W 001°16'714.6
2017-Oct-01 03:30N 50°04' W 001°27'714.3
2017-Oct-01 03:00N 50°02' W 001°38'  
2017-Sep-28 20:33N 41°00' W 009°50'112.7
2017-Sep-28 20:30N 40°60' W 009°50'612.4
2017-Sep-28 20:00N 40°53' W 009°49'612.5
2017-Sep-28 19:30N 40°47' W 009°49'712.5
2017-Sep-28 18:59N 40°41' W 009°50'612.8
2017-Sep-28 18:30N 40°34' W 009°50'2612.6
2017-Sep-28 16:26N 40°08' W 009°49'512.6
2017-Sep-28 16:01N 40°03' W 009°49'612.6
2017-Sep-28 15:30N 39°57' W 009°50'612.7
2017-Sep-28 14:59N 39°50' W 009°51'612.3
2017-Sep-28 14:29N 39°44' W 009°51'611.9
2017-Sep-28 14:00N 39°38' W 009°50'712.4
2017-Sep-28 13:27N 39°32' W 009°50'612.4
2017-Sep-28 13:01N 39°26' W 009°51'612.4
2017-Sep-28 12:30N 39°20' W 009°51'612.5
2017-Sep-28 12:00N 39°14' W 009°51'612.4
2017-Sep-28 11:31N 39°07' W 009°51'612.7
2017-Sep-28 11:01N 39°01' W 009°51'612.7
2017-Sep-28 10:30N 38°55' W 009°51'612.4
2017-Sep-28 10:01N 38°49' W 009°51'612.4
2017-Sep-28 09:31N 38°42' W 009°51'815.1
2017-Sep-28 09:00N 38°35' W 009°49'713.1
2017-Sep-28 08:30N 38°29' W 009°47'612.5
2017-Sep-28 08:00N 38°22' W 009°45'612.6
2017-Sep-28 07:30N 38°16' W 009°43'713.1
2017-Sep-28 07:00N 38°10' W 009°41'612.5
2017-Sep-28 06:30N 38°04' W 009°39'612.2
2017-Sep-28 06:00N 37°58' W 009°38'612.4
2017-Sep-28 05:30N 37°52' W 009°37'612.3
2017-Sep-28 05:00N 37°46' W 009°35'612.5
2017-Sep-28 04:30N 37°40' W 009°33'1012.8
2017-Sep-28 03:43N 37°30' W 009°30'312.8
2017-Sep-28 03:27N 37°27' W 009°29'1312.7
2017-Sep-28 02:23N 37°13' W 009°25'512.6
2017-Sep-28 02:00N 37°09' W 009°24'612.5
2017-Sep-28 01:30N 37°03' W 009°22'712.8
2017-Sep-28 00:58N 36°56' W 009°20'612.3
2017-Sep-28 00:30N 36°51' W 009°17'612.6
2017-Sep-28 00:00N 36°46' W 009°11'612.3
2017-Sep-27 23:30N 36°43' W 009°04'1512.5
2017-Sep-27 22:18N 36°45' W 008°46'1513.3
2017-Sep-27 21:10N 36°48' W 008°27'213.6
2017-Sep-27 21:00N 36°48' W 008°25'713.5
2017-Sep-27 20:30N 36°50' W 008°16'713.2
2017-Sep-27 19:57N 36°51' W 008°07'60 5.2
2017-Sep-27 08:24N 37°11' W 006°56'0 0.0
2017-Sep-26 06:41N 37°11' W 006°56'0 0.0
2017-Sep-26 06:29N 37°11' W 006°56'0 0.0
2017-Sep-26 06:00N 37°11' W 006°56'0 0.0
2017-Sep-26 05:30N 37°11' W 006°56'0 0.0
2017-Sep-26 04:50N 37°11' W 006°56'0 0.0
2017-Sep-26 03:21N 37°11' W 006°56'0 0.0
2017-Sep-26 02:59N 37°11' W 006°56'  
Track history (hours):
 
Tides and Currents Weather Stations Pressure Air Temp Water Temp Dewpoint Dewpoint Depression Visibility Wind Speed Wind Dir Waves Ship Positions

Americaborg

Last reported at 2017-Oct-05 23:17 UTC. Time now 2017-Oct-19 22:09 UTC.
Position N 60°25' E 019°02'.
Warning: this ship's position is 13 days out of date.

Length 143 m; draft 8.2 m.

Type: Cargo ship. MMSI: 244693000.

Date/timePositionNaut miles runAvg speedWind from/ knotsBaromVisibWave heightAir tempDewpointWater temp
2017-Oct-05 23:17N 60°25' E 019°02'413.2
2017-Oct-05 23:00N 60°21' E 019°01'612.9
2017-Oct-05 22:30N 60°14' E 019°03'612.9
2017-Oct-05 22:00N 60°09' E 019°09'611.7
2017-Oct-05 21:30N 60°04' E 019°16'611.9
2017-Oct-05 21:00N 59°60' E 019°24'711.9
2017-Oct-05 20:25N 59°54' E 019°33'25211.4
2017-Oct-04 22:12N 56°00' E 016°36'312.8
2017-Oct-04 22:00N 55°59' E 016°32'612.7
2017-Oct-04 21:31N 55°56' E 016°22'612.7
2017-Oct-04 21:01N 55°52' E 016°13'612.8
2017-Oct-04 20:31N 55°49' E 016°03'612.9
2017-Oct-04 20:01N 55°46' E 015°53'612.5
2017-Oct-04 19:31N 55°43' E 015°43'612.3
2017-Oct-04 19:00N 55°40' E 015°33'612.5
2017-Oct-04 18:31N 55°37' E 015°24'612.6
2017-Oct-04 18:01N 55°34' E 015°14'712.6
2017-Oct-04 17:29N 55°31' E 015°03'612.5
2017-Oct-04 17:00N 55°28' E 014°54'712.3
2017-Oct-04 16:28N 55°25' E 014°44'612.3
2017-Oct-04 16:00N 55°21' E 014°37'612.5
2017-Oct-04 15:30N 55°17' E 014°29'713.1
2017-Oct-04 15:00N 55°11' E 014°22'612.4
2017-Oct-04 14:30N 55°06' E 014°16'612.4
2017-Oct-04 14:00N 55°02' E 014°08'1012.1
2017-Oct-04 13:11N 54°58' E 013°52'3212.2
2017-Oct-04 10:32N 54°48' E 012°59'012.7
2017-Oct-04 10:31N 54°48' E 012°58'1612.5
2017-Oct-04 09:15N 54°41' E 012°34'1512.6
2017-Oct-04 08:05N 54°31' E 012°16'2011.5
2017-Oct-04 06:19N 54°26' E 011°42'514.1
2017-Oct-04 05:59N 54°28' E 011°35'715.0
2017-Oct-04 05:30N 54°31' E 011°24'815.8
2017-Oct-04 05:01N 54°35' E 011°12'815.1
2017-Oct-04 04:30N 54°39' E 011°01'713.2
2017-Oct-04 04:00N 54°43' E 010°52'714.1
2017-Oct-04 03:31N 54°50' E 010°52'714.4
2017-Oct-04 03:00N 54°57' E 010°57'713.6
2017-Oct-04 02:30N 55°03' E 011°01'714.6
2017-Oct-04 02:00N 55°10' E 011°04'11711.4
2017-Oct-03 15:49N 57°05' E 011°39'412.9
2017-Oct-03 15:28N 57°10' E 011°36'612.7
2017-Oct-03 15:00N 57°15' E 011°33'1212.4
2017-Oct-03 14:00N 57°27' E 011°25'612.6
2017-Oct-03 13:30N 57°30' E 011°15'713.1
2017-Oct-03 13:00N 57°32' E 011°04'713.9
2017-Oct-03 12:30N 57°35' E 010°52'713.4
2017-Oct-03 12:00N 57°39' E 010°41'4 7.1
2017-Oct-03 11:26N 57°40' E 010°35'0 0.0
2017-Oct-03 10:56N 57°41' E 010°35'0 0.0
2017-Oct-03 10:30N 57°40' E 010°35'0 0.0
2017-Oct-03 09:48N 57°41' E 010°35'0 0.0
2017-Oct-03 09:26N 57°41' E 010°35'0 0.0
2017-Oct-03 08:02N 57°41' E 010°35'0 0.1
2017-Oct-03 07:00N 57°40' E 010°35'2 5.0
2017-Oct-03 06:30N 57°41' E 010°39'510.2
2017-Oct-03 05:58N 57°46' E 010°45'511.4
2017-Oct-03 05:30N 57°47' E 010°36'715.1
2017-Oct-03 05:01N 57°47' E 010°22'18512.8
2017-Oct-02 14:35N 55°31' E 006°33'3612.6
2017-Oct-02 11:46N 55°01' E 006°01'312.8
2017-Oct-02 11:30N 54°58' E 005°58'612.8
2017-Oct-02 11:00N 54°52' E 005°53'612.9
2017-Oct-02 10:30N 54°47' E 005°47'8113.0
2017-Oct-02 04:16N 53°33' E 004°48'313.0
2017-Oct-02 04:00N 53°30' E 004°46'713.5
2017-Oct-02 03:30N 53°24' E 004°41'1413.9
2017-Oct-02 02:31N 53°11' E 004°32'514.1
2017-Oct-02 02:09N 53°07' E 004°28'213.9
2017-Oct-02 02:00N 53°05' E 004°26'713.9
2017-Oct-02 01:30N 52°59' E 004°20'714.0
2017-Oct-02 01:00N 52°53' E 004°15'714.1
2017-Oct-02 00:30N 52°47' E 004°09'714.0
2017-Oct-02 00:00N 52°42' E 004°01'714.2
2017-Oct-01 23:29N 52°37' E 003°52'8913.3
2017-Oct-01 16:47N 51°30' E 002°15'412.7
2017-Oct-01 16:28N 51°27' E 002°11'612.6
2017-Oct-01 16:00N 51°22' E 002°07'612.9
2017-Oct-01 15:31N 51°16' E 002°05'612.4
2017-Oct-01 15:00N 51°12' E 001°57'613.0
2017-Oct-01 14:31N 51°08' E 001°48'713.3
2017-Oct-01 14:01N 51°03' E 001°41'713.6
2017-Oct-01 13:30N 50°58' E 001°34'713.9
2017-Oct-01 13:00N 50°53' E 001°27'1214.1
2017-Oct-01 12:09N 50°42' E 001°20'4512.4
2017-Oct-01 08:33N 50°23' E 000°16'112.5
2017-Oct-01 08:30N 50°23' E 000°15'612.6
2017-Oct-01 08:00N 50°21' E 000°06'612.7
2017-Oct-01 07:31N 50°20' W 000°04'612.9
2017-Oct-01 07:01N 50°18' W 000°14'3213.8
2017-Oct-01 04:40N 50°09' W 001°02'214.4
2017-Oct-01 04:30N 50°08' W 001°06'714.5
2017-Oct-01 04:00N 50°06' W 001°16'714.6
2017-Oct-01 03:30N 50°04' W 001°27'714.3
2017-Oct-01 03:00N 50°02' W 001°38'  
2017-Sep-28 20:33N 41°00' W 009°50'112.7
2017-Sep-28 20:30N 40°60' W 009°50'612.4
2017-Sep-28 20:00N 40°53' W 009°49'612.5
2017-Sep-28 19:30N 40°47' W 009°49'712.5
2017-Sep-28 18:59N 40°41' W 009°50'612.8
2017-Sep-28 18:30N 40°34' W 009°50'2612.6
2017-Sep-28 16:26N 40°08' W 009°49'512.6
2017-Sep-28 16:01N 40°03' W 009°49'612.6
2017-Sep-28 15:30N 39°57' W 009°50'612.7
2017-Sep-28 14:59N 39°50' W 009°51'612.3
2017-Sep-28 14:29N 39°44' W 009°51'611.9
2017-Sep-28 14:00N 39°38' W 009°50'712.4
2017-Sep-28 13:27N 39°32' W 009°50'612.4
2017-Sep-28 13:01N 39°26' W 009°51'612.4
2017-Sep-28 12:30N 39°20' W 009°51'612.5
2017-Sep-28 12:00N 39°14' W 009°51'612.4
2017-Sep-28 11:31N 39°07' W 009°51'612.7
2017-Sep-28 11:01N 39°01' W 009°51'612.7
2017-Sep-28 10:30N 38°55' W 009°51'612.4
2017-Sep-28 10:01N 38°49' W 009°51'612.4
2017-Sep-28 09:31N 38°42' W 009°51'815.1
2017-Sep-28 09:00N 38°35' W 009°49'713.1
2017-Sep-28 08:30N 38°29' W 009°47'612.5
2017-Sep-28 08:00N 38°22' W 009°45'612.6
2017-Sep-28 07:30N 38°16' W 009°43'713.1
2017-Sep-28 07:00N 38°10' W 009°41'612.5
2017-Sep-28 06:30N 38°04' W 009°39'612.2
2017-Sep-28 06:00N 37°58' W 009°38'612.4
2017-Sep-28 05:30N 37°52' W 009°37'612.3
2017-Sep-28 05:00N 37°46' W 009°35'612.5
2017-Sep-28 04:30N 37°40' W 009°33'1012.8
2017-Sep-28 03:43N 37°30' W 009°30'312.8
2017-Sep-28 03:27N 37°27' W 009°29'1312.7
2017-Sep-28 02:23N 37°13' W 009°25'512.6
2017-Sep-28 02:00N 37°09' W 009°24'612.5
2017-Sep-28 01:30N 37°03' W 009°22'712.8
2017-Sep-28 00:58N 36°56' W 009°20'612.3
2017-Sep-28 00:30N 36°51' W 009°17'612.6
2017-Sep-28 00:00N 36°46' W 009°11'612.3
2017-Sep-27 23:30N 36°43' W 009°04'1512.5
2017-Sep-27 22:18N 36°45' W 008°46'1513.3
2017-Sep-27 21:10N 36°48' W 008°27'213.6
2017-Sep-27 21:00N 36°48' W 008°25'713.5
2017-Sep-27 20:30N 36°50' W 008°16'713.2
2017-Sep-27 19:57N 36°51' W 008°07'60 5.2
2017-Sep-27 08:24N 37°11' W 006°56'0 0.0
2017-Sep-26 06:41N 37°11' W 006°56'0 0.0
2017-Sep-26 06:29N 37°11' W 006°56'0 0.0
2017-Sep-26 06:00N 37°11' W 006°56'0 0.0
2017-Sep-26 05:30N 37°11' W 006°56'0 0.0
2017-Sep-26 04:50N 37°11' W 006°56'0 0.0
2017-Sep-26 03:21N 37°11' W 006°56'0 0.0
2017-Sep-26 02:59N 37°11' W 006°56'  

Dump ship's entire track history